Flight Track Log - Related Links

Times and Time Zones

All times are in EDT time to prevent confusion due to time zone crossing. See the VH-VQB flight status page for this flight to view local times or setup timezone preferences in your user account.

Time Position Orientation Groundspeed Altitude Reporting Facility
EDT Latitude Longitude Course Direction KTS MPH feet Rate Location/Type
Thu 06:57:09 PM -33.9340 151.1760 194° South  Level FlightAware ADS-B
Thu 07:00:20 PM -33.9370 151.1770 165° South 15 17 132 Level FlightAware ADS-B
Thu 07:00:40 PM -33.9380 151.1770 180° South 14 16 179 Level FlightAware ADS-B
Thu 07:00:50 PM -33.9390 151.1780 140° Southeast 14 16 186 Level FlightAware ADS-B
Thu 07:01:15 PM -33.9410 151.1780 180° South 17 20 190 Level FlightAware ADS-B
Thu 07:01:35 PM -33.9430 151.1790 157° South 19 22 200 Level FlightAware ADS-B
Thu 07:02:00 PM -33.9450 151.1790 180° South 16 18 208 Level FlightAware ADS-B
Thu 07:02:30 PM -33.9470 151.1790 180° South 14 16 220 Level FlightAware ADS-B
Thu 07:03:00 PM -33.9490 151.1800 157° South 24 28 236 Level FlightAware ADS-B
Thu 07:03:15 PM -33.9510 151.1800 180° South 15 17 255 Level FlightAware ADS-B
Thu 07:03:21 PM -33.9510 151.1810 90° East 15 17 266 Level FlightAware ADS-B
Thu 07:03:58 PM -33.9510 151.1840 90° East 19 22 270 Level FlightAware ADS-B
Thu 07:04:05 PM -33.9510 151.1850 90° East 16 18 302 Level FlightAware ADS-B
Thu 07:04:25 PM -33.9520 151.1860 140° Southeast 19 22 309 Level FlightAware ADS-B
Thu 07:04:35 PM -33.9530 151.1870 140° Southeast 21 24 330 Level FlightAware ADS-B
Thu 07:04:50 PM -33.9540 151.1870 180° South 23 26 342 Level FlightAware ADS-B
Thu 07:05:20 PM -33.9580 151.1880 168° South 28 32 361 Level FlightAware ADS-B
Thu 07:05:50 PM -33.9620 151.1890 168° South 28 32 407 Level FlightAware ADS-B
Thu 07:06:15 PM -33.9650 151.1900 165° South 29 33 466 Level FlightAware ADS-B
Thu 07:06:55 PM -33.9690 151.1910 168° South 18 21 530 Level FlightAware ADS-B
Thu 07:07:25 PM -33.9710 151.1920 157° South 13 15 681 Level FlightAware ADS-B
Thu 07:07:51 PM -33.9710 151.1930 90° East 14 16 865 Level FlightAware ADS-B
Thu 07:08:50 PM -33.9540 151.1890 349° North 149 171 1,129 Level FlightAware ADS-B
Thu 07:09:16 PM -33.9347 151.1883 349° North 147 169 1,600 2,432 Climbing Aus ATC (RADAR)
Thu 07:09:27 PM -33.9290 151.1900 349° North 168 193 1,500 414 Descending FlightAware ADS-B
Thu 07:09:45 PM -33.9150 151.1990 28° Northeast 189 217 1,800 1,660 Climbing FlightAware ADS-B
Thu 07:10:14 PM -33.8930 151.2210 40° Northeast 227 261 2,800 2,073 Climbing FlightAware ADS-B
Thu 07:10:40 PM -33.8740 151.2400 40° Northeast 249 287 3,700 2,318 Climbing FlightAware ADS-B
Thu 07:10:58 PM -33.8486 151.2627 40° Northeast 267 307 4,500 1,245 Climbing Aus ATC (RADAR)
Thu 07:11:33 PM -33.8200 151.3000 40° Northeast 346 398 4,800 517 Climbing FlightAware ADS-B
Thu 07:11:56 PM -33.8049 151.3563 40° Northeast 347 399 5,000 194 Climbing Aus ATC (RADAR)
Thu 07:12:04 PM -33.8020 151.3680 40° Northeast 365 420 4,900 -333 Descending FlightAware ADS-B
Thu 07:12:14 PM -33.7930 151.3870 60° Northeast 367 422 4,900 1,588 Level FlightAware ADS-B
Thu 07:12:38 PM -33.7655 151.4271 60° Northeast 371 427 5,800 2,294 Climbing Aus ATC (RADAR)
Thu 07:12:48 PM -33.7560 151.4420 60° Northeast 379 436 6,200 4,114 Climbing FlightAware ADS-B
Thu 07:13:13 PM -33.7280 151.4820 50° Northeast 365 420 8,200 3,951 Climbing FlightAware ADS-B
Thu 07:13:29 PM -33.7180 151.4970 51° Northeast 359 413 8,900 3,429 Climbing FlightAware ADS-B
Thu 07:14:09 PM -33.6700 151.5680 51° Northeast 360 414 11,400 3,895 Climbing FlightAware ADS-B
Thu 07:14:26 PM -33.6499 151.5969 51° Northeast 360 414 12,600 2,455 Climbing Aus ATC (RADAR)
Thu 07:14:53 PM -33.6220 151.6380 51° Northeast 379 436 13,200 2,167 Climbing FlightAware ADS-B
Thu 07:15:38 PM -33.5700 151.6990 44° Northeast 370 426 15,200 2,618 Climbing FlightAware ADS-B
Thu 07:15:48 PM -33.5530 151.7070 21° North 367 422 15,600 3,000 Climbing FlightAware ADS-B
Thu 07:16:12 PM -33.5067 151.7215 21° North 361 415 16,900 2,357 Climbing Aus ATC (RADAR)
Thu 07:16:44 PM -33.4550 151.7380 21° North 379 436 17,800 2,073 Climbing FlightAware ADS-B
Thu 07:17:07 PM -33.4132 151.7510 21° North 377 434 18,800 1,500 Climbing Aus ATC (RADAR)
Thu 07:17:24 PM -33.3860 151.7600 21° North 398 458 18,800 621 Level FlightAware ADS-B
Thu 07:18:05 PM -33.3100 151.7840 15° North 417 480 19,400 1,403 Climbing FlightAware ADS-B
Thu 07:18:41 PM -33.2392 151.8074 15° North 433 498 20,600 1,867 Climbing Aus ATC (RADAR)
Thu 07:18:50 PM -33.2230 151.8130 15° North 430 495 20,800 2,824 Climbing FlightAware ADS-B
Thu 07:19:32 PM -33.1409 151.8393 15° North 418 481 23,000 2,800 Climbing Aus ATC (RADAR)
Thu 07:19:35 PM -33.1380 151.8400 15° North 403 464 22,900 3,209 Descending FlightAware ADS-B
Thu 07:20:15 PM -33.0670 151.8630 15° North 381 438 25,300 3,333 Climbing FlightAware ADS-B
Thu 07:20:47 PM -33.0117 151.8818 15° North 366 421 26,900 2,100 Climbing Aus ATC (RADAR)
Thu 07:20:55 PM -33.0010 151.8850 15° North 365 420 26,700 226 Descending FlightAware ADS-B
Thu 07:21:40 PM -32.9220 151.9090 14° North 403 464 27,100 711 Climbing FlightAware ADS-B
Thu 07:22:11 PM -32.8642 151.9274 14° North 409 471 27,600 600 Climbing Aus ATC (RADAR)
Thu 07:22:20 PM -32.8470 151.9330 14° North 421 484 27,500 333 Descending FlightAware ADS-B
Thu 07:22:47 PM -32.7923 151.9506 14° North 426 490 27,800 750 Climbing Aus ATC (RADAR)
Thu 07:23:00 PM -32.7680 151.9580 14° North 437 503 28,000 1,395 Climbing FlightAware ADS-B
Thu 07:23:30 PM -32.7062 151.9779 14° North 446 513 28,800 1,067 Climbing Aus ATC (RADAR)
Thu 07:23:45 PM -32.6790 151.9870 14° North 446 513 28,800 1,269 Level FlightAware ADS-B
Thu 07:24:22 PM -32.6002 152.0121 14° North 448 516 29,900 1,650 Climbing Aus ATC (RADAR)
Thu 07:24:25 PM -32.5970 152.0130 14° North 452 520 29,900 1,125 Level FlightAware ADS-B
Thu 07:25:10 PM -32.5070 152.0420 15° North 446 513 30,800 1,341 Climbing FlightAware ADS-B
Thu 07:25:50 PM -32.4240 152.0680 15° North 452 520 31,800 1,425 Climbing FlightAware ADS-B
Thu 07:26:30 PM -32.3440 152.0930 15° North 449 517 32,700 1,477 Climbing FlightAware ADS-B
Thu 07:26:55 PM -32.2921 152.1100 15° North 448 516 33,400 1,333 Climbing Aus ATC (RADAR)
Thu 07:27:15 PM -32.2580 152.1200 15° North 446 513 33,700 1,108 Climbing FlightAware ADS-B
Thu 07:28:00 PM -32.1650 152.1500 15° North 435 501 34,600 1,263 Climbing FlightAware ADS-B
Thu 07:28:31 PM -32.0991 152.1697 15° North 442 509 35,300 600 Climbing Aus ATC (RADAR)
Thu 07:28:40 PM -32.0870 152.1740 15° North 431 496 35,000 -367 Descending FlightAware ADS-B
Thu 07:29:20 PM -32.0090 152.1990 15° North 432 497 35,000  Level FlightAware ADS-B
Thu 07:30:01 PM -31.9340 152.2220 15° North 435 501 35,000 200 Level FlightAware ADS-B
Thu 07:30:20 PM -31.8876 152.2369 15° North 439 505 35,200  Climbing Aus ATC (RADAR)
Thu 07:30:47 PM -31.8400 152.2510 15° North 442 509 35,000 -185 Descending FlightAware ADS-B
Thu 07:31:25 PM -31.7630 152.2750 15° North 442 509 35,000 265 Level FlightAware ADS-B
Thu 07:31:55 PM -31.7000 152.2955 15° North 438 504 35,300  Climbing Aus ATC (RADAR)
Thu 07:32:26 PM -31.6420 152.3130 15° North 442 509 35,000 -261 Descending FlightAware ADS-B
Thu 07:33:04 PM -31.5660 152.3370 15° North 442 509 35,000 240 Level FlightAware ADS-B
Thu 07:33:41 PM -31.4878 152.3615 15° North 440 506 35,300  Climbing Aus ATC (RADAR)
Thu 07:33:45 PM -31.4890 152.3610 15° North 445 512 35,000  Descending FlightAware ADS-B
Thu 07:34:06 PM -31.4379 152.3766 15° North 443 510 35,300  Climbing Aus ATC (RADAR)
Thu 07:34:26 PM -31.4030 152.3870 15° North 447 514 35,000 -281 Descending FlightAware ADS-B
Thu 07:35:10 PM -31.3170 152.4140 15° North 446 513 35,000 261 Level FlightAware ADS-B
Thu 07:35:35 PM -31.2619 152.4309 15° North 442 509 35,300  Climbing Aus ATC (RADAR)
Thu 07:35:51 PM -31.2360 152.4390 15° North 444 511 35,000  Descending FlightAware ADS-B
Thu 07:36:06 PM -31.1986 152.4508 15° North 444 511 35,300  Climbing Aus ATC (RADAR)
Thu 07:36:34 PM -31.1460 152.4660 15° North 449 517 35,000  Descending FlightAware ADS-B
Thu 07:36:56 PM -31.0980 152.4811 15° North 449 517 35,300  Climbing Aus ATC (RADAR)
Thu 07:37:15 PM -31.0630 152.4920 15° North 456 525 35,000 120 Descending FlightAware ADS-B
Thu 07:37:46 PM -30.9958 152.5126 15° North 455 524 35,400 150 Climbing Aus ATC (RADAR)
Thu 07:37:55 PM -30.9830 152.5170 15° North 449 517 35,100 -254 Descending FlightAware ADS-B
Thu 07:38:57 PM -30.8720 152.5510 15° North 446 513 35,100 141 Level FlightAware ADS-B
Thu 07:39:20 PM -30.8028 152.5719 15° North 452 520 35,300  Climbing Aus ATC (RADAR)
Thu 07:39:34 PM -30.8090 152.5710 15° North 446 513 35,100  Descending FlightAware ADS-B
Thu 07:39:50 PM -30.7427 152.5978 15° North 461 531 35,300 -128 Climbing Aus ATC (RADAR)
Thu 07:40:21 PM -30.6840 152.6260 15° North 464 534 35,000  Descending FlightAware ADS-B
Thu 07:40:45 PM -30.6333 152.6499 15° North 465 535 35,300  Climbing Aus ATC (RADAR)
Thu 07:41:01 PM -30.6070 152.6620 15° North 463 533 35,000 -321 Descending FlightAware ADS-B
Thu 07:41:41 PM -30.5290 152.6980 22° Northeast 463 533 35,000 265 Level FlightAware ADS-B
Thu 07:42:09 PM -30.4677 152.7260 22° Northeast 456 525 35,300  Climbing Aus ATC (RADAR)
Thu 07:42:23 PM -30.4510 152.7330 22° Northeast 462 532 35,000  Descending FlightAware ADS-B
Thu 07:42:59 PM -30.3675 152.7701 22° Northeast 457 526 35,300  Climbing Aus ATC (RADAR)
Thu 07:43:11 PM -30.3460 152.7820 22° Northeast 462 532 35,000 -346 Descending FlightAware ADS-B
Thu 07:43:51 PM -30.2660 152.8190 22° Northeast 461 531 35,000 243 Level FlightAware ADS-B
Thu 07:44:25 PM -30.1962 152.8507 22° Northeast 462 532 35,300  Climbing Aus ATC (RADAR)
Thu 07:44:31 PM -30.1880 152.8550 22° Northeast 461 531 35,000  Descending FlightAware ADS-B
Thu 07:44:55 PM -30.1368 152.8784 22° Northeast 461 531 35,300  Climbing Aus ATC (RADAR)
Thu 07:45:14 PM -30.1070 152.8920 22° Northeast 462 532 35,000 -321 Descending FlightAware ADS-B
Thu 07:45:51 PM -30.0270 152.9280 21° North 464 534 35,000 -85 Level FlightAware ADS-B
Thu 07:46:25 PM -29.9576 152.9615 21° North 466 536 34,900 -600 Descending Aus ATC (RADAR)
Thu 07:46:41 PM -29.9260 152.9740 21° North 463 533 34,500 -1,821 Descending FlightAware ADS-B
Thu 07:47:21 PM -29.8480 153.0100 22° Northeast 464 534 33,200 -1,729 Descending FlightAware ADS-B
Thu 07:47:40 PM -29.8080 153.0296 22° Northeast 464 534 32,800 -2,167 Descending Aus ATC (RADAR)
Thu 07:47:57 PM -29.7800 153.0410 22° Northeast 461 531 31,900 -2,229 Descending FlightAware ADS-B
Thu 07:48:15 PM -29.7380 153.0598 22° Northeast 462 532 31,500 -2,204 Descending Aus ATC (RADAR)
Thu 07:48:46 PM -29.6820 153.0860 22° Northeast 457 526 30,100 -2,958 Descending FlightAware ADS-B
Thu 07:49:26 PM -29.6010 153.1220 21° North 467 537 28,000 -3,300 Descending FlightAware ADS-B
Thu 07:50:06 PM -29.5210 153.1580 21° North 476 548 25,700 -3,088 Descending FlightAware ADS-B
Thu 07:50:34 PM -29.4564 153.1875 21° North 479 551 24,500 -2,933 Descending Aus ATC (RADAR)
Thu 07:50:51 PM -29.4250 153.2010 21° North 476 548 23,500 -3,053 Descending FlightAware ADS-B
Thu 07:51:31 PM -29.3480 153.2360 22° Northeast 473 544 21,600 -2,690 Descending FlightAware ADS-B
Thu 07:51:49 PM -29.3024 153.2563 22° Northeast 472 543 20,900 -2,947 Descending Aus ATC (RADAR)
Thu 07:52:28 PM -29.2280 153.2900 22° Northeast 468 539 18,800 -2,854 Descending FlightAware ADS-B
Thu 07:53:11 PM -29.1430 153.3280 21° North 451 519 17,000 -2,530 Descending FlightAware ADS-B
Thu 07:53:51 PM -29.0670 153.3620 21° North 434 499 15,300 -1,875 Descending FlightAware ADS-B
Thu 07:54:31 PM -28.9940 153.3950 22° Northeast 399 459 14,500 -1,562 Descending FlightAware ADS-B
Thu 07:55:04 PM -28.9342 153.4211 22° Northeast 397 457 13,400 -2,400 Descending Aus ATC (RADAR)
Thu 07:55:11 PM -28.9250 153.4260 22° Northeast 390 449 12,900 -1,600 Descending FlightAware ADS-B
Thu 07:55:34 PM -28.8845 153.4442 22° Northeast 387 445 12,600 -2,040 Descending Aus ATC (RADAR)
Thu 07:56:01 PM -28.8430 153.4620 22° Northeast 369 425 11,200 -2,500 Descending FlightAware ADS-B
Thu 07:56:34 PM -28.7897 153.4860 22° Northeast 363 418 10,100 -2,550 Descending Aus ATC (RADAR)
Thu 07:56:41 PM -28.7820 153.4890 22° Northeast 365 420 9,500 -2,625 Descending FlightAware ADS-B
Thu 07:57:06 PM -28.7430 153.5070 22° Northeast 354 407 8,700 -873 Descending FlightAware ADS-B
Thu 07:57:36 PM -28.6980 153.5270 21° North 319 367 8,700 -300 Level FlightAware ADS-B
Thu 07:58:06 PM -28.6590 153.5440 21° North 294 338 8,400 -1,745 Descending FlightAware ADS-B
Thu 07:58:31 PM -28.6260 153.5590 22° Northeast 310 357 7,100 -2,880 Descending FlightAware ADS-B
Thu 07:58:56 PM -28.5970 153.5710 20° North 326 375 6,000 -2,250 Descending FlightAware ADS-B
Thu 07:59:11 PM -28.5710 153.5830 22° Northeast 319 367 5,600 -875 Descending FlightAware ADS-B
Thu 07:59:44 PM -28.5253 153.6037 22° Northeast 308 354 5,300 -450 Descending Aus ATC (RADAR)
Thu 07:59:51 PM -28.5220 153.6050 22° Northeast 308 354 5,300 -714 Level FlightAware ADS-B
Thu 08:00:26 PM -28.4800 153.6230 21° North 284 327 4,800 -673 Descending FlightAware ADS-B
Thu 08:01:38 PM -28.3990 153.6514 21° North 222 255 4,100 -375 Descending Aus ATC (RADAR)
Thu 08:02:18 PM -28.3669 153.6342 335° Northwest 192 221 4,100 -533 Level Aus ATC (RADAR)
Thu 08:03:08 PM -28.3329 153.6137 332° Northwest 166 191 3,300 -1,171 Descending Aus ATC (RADAR)
Thu 08:03:40 PM -28.3130 153.6010 332° Northwest 156 180 2,500 -1,138 Descending FlightAware ADS-B
Thu 08:04:06 PM -28.2970 153.5910 331° Northwest 149 171 2,200 -421 Descending FlightAware ADS-B
Thu 08:04:37 PM -28.2810 153.5800 329° Northwest 145 167 2,100 -115 Descending FlightAware ADS-B
Thu 08:04:58 PM -28.2665 153.5709 329° Northwest 143 165 2,100 -960 Level Aus ATC (RADAR)
Thu 08:05:02 PM -28.2650 153.5700 329° Northwest 142 163 1,700 -1,579 Descending FlightAware ADS-B
Thu 08:05:17 PM -28.2570 153.5650 331° Northwest 141 162 1,600 -667 Descending FlightAware ADS-B
Thu 08:05:47 PM -28.2410 153.5550 331° Northwest 142 163 1,200 -679 Descending FlightAware ADS-B
Thu 08:06:10 PM -28.2290 153.5470 330° Northwest 137 158 1,000 -293 Descending FlightAware ADS-B
Thu 08:06:28 PM -28.2160 153.5384 330° Northwest 135 155 1,000  Level Aus ATC (RADAR)
Thu 08:06:37 PM -28.2160 153.5390 330° Northwest 137 158 1,000 -700 Level FlightAware ADS-B
Thu 08:07:28 PM -28.1837 153.5179 330° Northwest 132 152 300 -824 Descending Aus ATC (RADAR)

Login

Don't have an account? Register now (free) for customized features, flight alerts, and more!